createdAt,value
2019-02-25T00:02:01.377Z,12.25
2019-02-25T00:04:07.430Z,14.40
2019-02-25T00:06:12.981Z,11.08
2019-02-25T00:08:24.822Z,12.80
2019-02-25T00:10:30.437Z,13.70
2019-02-25T00:12:39.202Z,22.40
2019-02-25T00:14:45.169Z,21.12
2019-02-25T00:16:50.949Z,18.77
2019-02-25T00:18:56.487Z,18.00
2019-02-25T00:21:08.548Z,14.47
2019-02-25T00:23:21.422Z,17.42
2019-02-25T00:25:26.942Z,11.88
2019-02-25T00:27:32.353Z,13.65
2019-02-25T00:29:39.449Z,18.52
2019-02-25T00:31:45.946Z,12.45
2019-02-25T00:33:51.469Z,8.53
2019-02-25T00:35:56.900Z,5.03
2019-02-25T00:38:02.405Z,15.70
2019-02-25T00:40:07.877Z,6.92
2019-02-25T00:42:13.341Z,13.15
2019-02-25T00:44:18.809Z,8.95
2019-02-25T00:46:24.281Z,9.33
2019-02-25T00:48:29.785Z,9.38
2019-02-25T00:50:35.214Z,8.95
2019-02-25T00:52:47.046Z,9.93
2019-02-25T00:55:06.458Z,7.33
2019-02-25T00:57:14.069Z,7.90
2019-02-25T00:59:19.548Z,7.30
2019-02-25T01:01:25.030Z,9.05
2019-02-25T01:03:30.574Z,9.03
2019-02-25T01:05:36.311Z,9.45
2019-02-25T01:07:41.802Z,6.97
2019-02-25T01:09:50.018Z,10.20
2019-02-25T01:12:01.583Z,8.40
2019-02-25T01:14:13.650Z,7.22
2019-02-25T01:16:19.059Z,5.50
2019-02-25T01:18:24.473Z,10.60
2019-02-25T01:20:29.951Z,10.08
2019-02-25T01:22:35.340Z,6.25
2019-02-25T01:24:40.802Z,6.05
2019-02-25T01:26:55.218Z,9.83
2019-02-25T01:29:04.247Z,8.20
2019-02-25T01:31:09.658Z,7.28
2019-02-25T01:33:15.165Z,7.17
2019-02-25T01:35:20.571Z,7.12
2019-02-25T01:37:26.003Z,8.00
2019-02-25T01:39:37.699Z,8.55
2019-02-25T01:41:43.219Z,3.70
2019-02-25T01:43:51.418Z,3.20
2019-02-25T01:45:56.829Z,4.17
2019-02-25T01:48:02.223Z,2.75
2019-02-25T01:50:08.257Z,3.52
2019-02-25T01:52:13.753Z,2.80
2019-02-25T01:54:19.209Z,5.62
2019-02-25T01:56:24.639Z,3.30
2019-02-25T01:58:30.077Z,13.65
2019-02-25T02:00:35.672Z,7.50
2019-02-25T02:02:41.274Z,3.30
2019-02-25T02:04:46.692Z,3.70
2019-02-25T02:06:52.150Z,4.08
2019-02-25T02:08:57.666Z,4.75
2019-02-25T02:11:03.213Z,4.37
2019-02-25T02:13:14.109Z,8.48
2019-02-25T02:15:15.994Z,2.70
2019-02-25T02:17:21.412Z,3.83
2019-02-25T02:19:26.893Z,10.08
2019-02-25T02:21:32.345Z,3.98
2019-02-25T02:23:37.778Z,6.28
2019-02-25T02:25:43.217Z,9.80
2019-02-25T02:27:48.702Z,7.40
2019-02-25T02:29:54.161Z,5.92
2019-02-25T02:31:59.579Z,5.10
2019-02-25T02:34:07.781Z,5.60
2019-02-25T02:36:13.202Z,2.83
2019-02-25T02:38:18.781Z,3.35
2019-02-25T02:40:24.229Z,3.50
2019-02-25T02:42:29.637Z,4.85
2019-02-25T02:44:35.038Z,2.65
2019-02-25T02:47:02.426Z,6.87
2019-02-25T02:49:07.841Z,5.33
2019-02-25T02:51:20.065Z,1.98
2019-02-25T02:53:26.073Z,3.10
2019-02-25T02:55:31.630Z,1.15
2019-02-25T02:57:37.043Z,3.80
2019-02-25T02:59:42.455Z,1.77
2019-02-25T03:01:49.363Z,8.08
2019-02-25T03:03:54.843Z,2.52
2019-02-25T03:06:00.242Z,3.08
2019-02-25T03:08:12.509Z,2.58
2019-02-25T03:10:19.338Z,2.22
2019-02-25T03:12:25.831Z,5.22
2019-02-25T03:14:31.326Z,1.47
2019-02-25T03:16:36.726Z,1.95
2019-02-25T03:18:42.210Z,3.92
2019-02-25T03:20:50.783Z,2.80
2019-02-25T03:22:58.144Z,1.95
2019-02-25T03:25:05.479Z,2.72
2019-02-25T03:27:10.928Z,4.67
2019-02-25T03:29:16.447Z,1.17
2019-02-25T03:31:21.950Z,1.65
2019-02-25T03:33:27.407Z,6.70
2019-02-25T03:35:32.810Z,3.35
2019-02-25T03:37:38.195Z,2.17
2019-02-25T03:39:43.633Z,2.00
2019-02-25T03:41:49.059Z,4.20
2019-02-25T03:43:54.709Z,3.98
2019-02-25T03:46:00.203Z,6.80
2019-02-25T03:48:05.633Z,3.72
2019-02-25T03:50:11.087Z,1.30
2019-02-25T03:52:16.590Z,3.25
2019-02-25T03:54:22.018Z,1.30
2019-02-25T03:56:27.518Z,9.33
2019-02-25T03:58:32.984Z,6.37
2019-02-25T04:00:38.413Z,1.60
2019-02-25T04:02:43.825Z,2.30
2019-02-25T04:04:49.601Z,1.45
2019-02-25T04:06:55.050Z,1.22
2019-02-25T04:09:06.938Z,1.72
2019-02-25T04:11:13.374Z,1.25
2019-02-25T04:13:22.031Z,4.15
2019-02-25T04:15:31.966Z,2.60
2019-02-25T04:17:37.397Z,1.15
2019-02-25T04:19:42.932Z,2.25
2019-02-25T04:21:51.173Z,1.17
2019-02-25T04:23:56.591Z,2.52
2019-02-25T04:26:02.055Z,4.00
2019-02-25T04:28:08.562Z,2.10
2019-02-25T04:30:14.954Z,6.30
2019-02-25T04:32:21.760Z,0.90
2019-02-25T04:34:27.404Z,1.92
2019-02-25T04:36:33.482Z,1.20
2019-02-25T04:38:38.931Z,2.12
2019-02-25T04:40:44.390Z,2.05
2019-02-25T04:42:52.254Z,3.95
2019-02-25T04:44:57.788Z,0.90
2019-02-25T04:47:03.340Z,2.25
2019-02-25T04:49:08.774Z,4.03
2019-02-25T04:51:14.242Z,2.12
2019-02-25T04:53:19.678Z,2.60
2019-02-25T04:55:25.165Z,3.85
2019-02-25T04:57:30.604Z,1.95
2019-02-25T04:59:36.157Z,2.37
2019-02-25T05:01:41.657Z,3.27
2019-02-25T05:03:49.845Z,2.17
2019-02-25T05:05:55.301Z,2.58
2019-02-25T05:08:00.846Z,4.10
2019-02-25T05:10:06.714Z,1.00
2019-02-25T05:12:12.136Z,1.72
2019-02-25T05:14:17.654Z,2.15
2019-02-25T05:16:23.135Z,1.15
2019-02-25T05:18:28.746Z,1.45
2019-02-25T05:20:35.669Z,1.17
2019-02-25T05:22:41.173Z,1.17
2019-02-25T05:24:46.651Z,0.98
2019-02-25T05:26:55.172Z,0.93
2019-02-25T05:29:00.673Z,1.75
2019-02-25T05:31:06.212Z,0.70
2019-02-25T05:33:15.244Z,2.15
2019-02-25T05:35:23.527Z,6.47
2019-02-25T05:37:35.987Z,1.12
2019-02-25T05:39:43.189Z,0.78
2019-02-25T05:41:48.660Z,1.30
2019-02-25T05:43:55.683Z,1.72
2019-02-25T05:46:01.122Z,1.45
2019-02-25T05:48:06.635Z,2.02
2019-02-25T05:50:13.477Z,2.50
2019-02-25T05:52:21.874Z,1.60
2019-02-25T05:54:36.938Z,3.87
2019-02-25T05:56:55.138Z,1.90
2019-02-25T05:59:01.142Z,2.87
2019-02-25T06:01:06.878Z,1.00
2019-02-25T06:03:12.306Z,2.30
2019-02-25T06:05:17.804Z,4.45
2019-02-25T06:07:23.206Z,0.90
2019-02-25T06:09:28.710Z,1.07
2019-02-25T06:11:34.268Z,0.80
2019-02-25T06:13:40.043Z,1.10
2019-02-25T06:15:45.496Z,2.00
2019-02-25T06:17:50.942Z,1.15
2019-02-25T06:19:56.370Z,2.25
2019-02-25T06:22:03.400Z,3.47
2019-02-25T06:24:22.370Z,0.90
2019-02-25T06:26:30.503Z,8.70
2019-02-25T06:28:36.025Z,14.65
2019-02-25T06:30:41.754Z,14.98
2019-02-25T06:32:56.463Z,9.88
2019-02-25T06:35:06.206Z,10.70
2019-02-25T06:37:11.625Z,11.03
2019-02-25T06:39:17.053Z,10.70
2019-02-25T06:41:22.511Z,13.72
2019-02-25T06:43:28.627Z,9.85
2019-02-25T06:45:34.541Z,14.00
2019-02-25T06:47:39.984Z,10.93
2019-02-25T06:49:45.467Z,15.55
2019-02-25T06:51:50.945Z,13.35
2019-02-25T06:53:56.378Z,13.68
2019-02-25T06:56:15.577Z,10.75
2019-02-25T06:58:23.013Z,15.93
2019-02-25T07:00:28.849Z,18.27
2019-02-25T07:02:34.388Z,10.15
2019-02-25T07:04:46.465Z,10.45
2019-02-25T07:07:10.178Z,14.20
2019-02-25T07:09:33.164Z,14.15
2019-02-25T07:11:55.212Z,13.25
2019-02-25T07:14:18.466Z,10.15
2019-02-25T07:16:42.759Z,13.70
2019-02-25T07:19:11.523Z,10.60
2019-02-25T07:21:31.060Z,9.75
2019-02-25T07:23:43.641Z,14.75
2019-02-25T07:26:15.510Z,34.03
2019-02-25T07:28:28.438Z,16.27
2019-02-25T07:30:50.878Z,19.02
2019-02-25T07:33:12.143Z,15.23
2019-02-25T07:35:35.091Z,13.60
2019-02-25T07:37:56.620Z,15.45
2019-02-25T07:40:11.709Z,15.28
2019-02-25T07:42:24.847Z,17.60
2019-02-25T07:44:45.089Z,11.68
2019-02-25T07:47:16.409Z,17.30
2019-02-25T07:49:28.738Z,15.80
2019-02-25T07:51:48.251Z,13.08
2019-02-25T07:54:19.909Z,11.43
2019-02-25T07:56:44.653Z,20.90
2019-02-25T07:59:12.811Z,14.47
2019-02-25T08:01:36.114Z,12.68
2019-02-25T08:04:04.649Z,16.35
2019-02-25T08:06:31.994Z,16.27
2019-02-25T08:09:12.301Z,12.82
2019-02-25T08:11:40.470Z,9.45
2019-02-25T08:13:56.396Z,12.13
2019-02-25T08:16:14.091Z,9.23
2019-02-25T08:18:30.150Z,9.50
2019-02-25T08:21:04.090Z,11.63
2019-02-25T08:23:28.627Z,13.50
2019-02-25T08:26:00.012Z,11.90
2019-02-25T08:28:24.913Z,12.88
2019-02-25T08:30:39.822Z,16.00
2019-02-25T08:33:01.326Z,11.93
2019-02-25T08:35:18.641Z,14.98
2019-02-25T08:38:13.610Z,8.93
2019-02-25T08:41:00.964Z,12.33
2019-02-25T08:43:43.342Z,14.78
2019-02-25T08:45:57.067Z,9.85
2019-02-25T08:48:36.570Z,18.05
2019-02-25T08:50:48.572Z,13.38
2019-02-25T08:52:54.711Z,10.50
2019-02-25T08:55:00.329Z,10.13
2019-02-25T08:57:06.393Z,9.88
2019-02-25T08:59:12.662Z,10.40
2019-02-25T09:01:18.393Z,12.35
2019-02-25T09:03:23.932Z,9.20
2019-02-25T09:05:31.154Z,7.60
2019-02-25T09:07:42.672Z,11.83
2019-02-25T09:09:48.196Z,14.40
2019-02-25T09:11:53.390Z,13.20
2019-02-25T09:13:59.308Z,9.77
2019-02-25T09:16:05.030Z,12.50
2019-02-25T09:18:08.572Z,8.57
2019-02-25T09:20:14.745Z,9.93
2019-02-25T09:22:20.618Z,15.50
2019-02-25T09:24:25.888Z,10.50
2019-02-25T09:26:39.693Z,15.17
2019-02-25T09:29:22.643Z,9.27
2019-02-25T09:31:27.813Z,2.87
2019-02-25T09:33:35.771Z,5.37
2019-02-25T09:35:41.166Z,2.57
2019-02-25T09:37:47.494Z,2.37
2019-02-25T09:39:52.766Z,3.40
2019-02-25T09:42:08.158Z,3.33
2019-02-25T09:44:14.469Z,2.00
2019-02-25T09:46:19.848Z,2.07
2019-02-25T09:48:31.927Z,2.00
2019-02-25T09:50:37.769Z,1.80
2019-02-25T09:52:43.128Z,1.37
2019-02-25T09:54:58.502Z,3.22
2019-02-25T09:57:06.984Z,2.50
2019-02-25T09:59:12.299Z,3.00
2019-02-25T10:01:17.830Z,2.20
2019-02-25T10:03:23.404Z,1.83
2019-02-25T10:05:28.651Z,1.60
2019-02-25T10:07:34.131Z,2.80
2019-02-25T10:09:43.389Z,1.73
2019-02-25T10:11:48.841Z,8.30
2019-02-25T10:13:54.047Z,9.10
2019-02-25T10:15:59.286Z,12.33
2019-02-25T10:18:12.545Z,11.33
2019-02-25T10:20:18.205Z,14.40
2019-02-25T10:22:30.454Z,11.17
2019-02-25T10:24:43.233Z,8.40
2019-02-25T10:26:48.917Z,13.60
2019-02-25T10:29:02.546Z,9.87
2019-02-25T10:31:08.392Z,10.50
2019-02-25T10:33:14.099Z,12.27
2019-02-25T10:35:27.229Z,6.77
2019-02-25T10:37:46.230Z,9.50
2019-02-25T10:39:51.786Z,9.50
2019-02-25T10:41:59.508Z,13.83
2019-02-25T10:44:06.522Z,16.07
2019-02-25T10:46:15.114Z,22.70
2019-02-25T10:48:19.969Z,27.07
2019-02-25T10:50:26.180Z,22.00
2019-02-25T10:52:31.942Z,15.60
2019-02-25T10:54:41.604Z,23.23
2019-02-25T10:56:52.119Z,19.17
2019-02-25T10:59:00.177Z,17.30
2019-02-25T11:01:07.140Z,17.30
2019-02-25T11:03:13.483Z,28.27
2019-02-25T11:05:33.121Z,14.53
2019-02-25T11:07:39.817Z,16.33
2019-02-25T11:10:22.286Z,24.47
2019-02-25T11:12:29.869Z,18.60
2019-02-25T11:14:38.989Z,16.23
2019-02-25T11:16:48.053Z,23.27
2019-02-25T11:18:55.126Z,12.60
2019-02-25T11:21:03.657Z,20.23
2019-02-25T11:23:10.190Z,16.37
2019-02-25T11:25:16.293Z,17.73
2019-02-25T11:27:21.814Z,17.20
2019-02-25T11:29:27.093Z,15.17
2019-02-25T11:31:33.579Z,13.87
2019-02-25T11:33:38.753Z,14.10
2019-02-25T11:35:46.202Z,11.73
2019-02-25T11:37:54.716Z,17.75
2019-02-25T11:40:01.883Z,12.07
2019-02-25T11:42:08.013Z,12.40
2019-02-25T11:44:17.156Z,10.48
2019-02-25T11:46:30.002Z,9.10
2019-02-25T11:48:38.841Z,14.80
2019-02-25T11:50:51.153Z,18.00
2019-02-25T11:52:57.839Z,12.83
2019-02-25T11:55:05.289Z,12.90
2019-02-25T11:57:10.543Z,10.17
2019-02-25T11:59:15.681Z,8.90
2019-02-25T12:01:20.934Z,8.80
2019-02-25T12:03:26.190Z,8.60
2019-02-25T12:05:32.128Z,13.60
2019-02-25T12:07:37.591Z,10.80
2019-02-25T12:09:43.122Z,11.80
2019-02-25T12:11:48.320Z,11.27
2019-02-25T12:13:53.527Z,11.83
2019-02-25T12:15:58.762Z,13.33
2019-02-25T12:18:06.598Z,11.60
2019-02-25T12:20:12.586Z,13.23
2019-02-25T12:22:17.797Z,9.07
2019-02-25T12:24:29.273Z,9.00
2019-02-25T12:26:34.697Z,10.67
2019-02-25T12:28:41.598Z,8.83
2019-02-25T12:30:46.767Z,9.50
2019-02-25T12:32:51.946Z,11.17
2019-02-25T12:34:57.183Z,12.43
2019-02-25T12:37:02.438Z,11.90
2019-02-25T12:39:08.577Z,12.63
2019-02-25T12:41:13.722Z,12.03
2019-02-25T12:43:18.913Z,9.10
2019-02-25T12:45:24.072Z,7.07
2019-02-25T12:47:29.267Z,7.90
2019-02-25T12:49:41.303Z,11.13
2019-02-25T12:51:46.509Z,6.70
2019-02-25T12:53:51.746Z,10.77
2019-02-25T12:55:56.955Z,12.23
2019-02-25T12:58:02.184Z,7.00
2019-02-25T13:00:10.584Z,7.80
2019-02-25T13:02:15.863Z,8.40
2019-02-25T13:04:21.161Z,8.97
2019-02-25T13:06:26.479Z,10.17
2019-02-25T13:08:31.687Z,12.20
2019-02-25T13:10:36.905Z,8.20
2019-02-25T13:12:43.403Z,7.50
2019-02-25T13:14:48.727Z,7.50
2019-02-25T13:16:54.271Z,18.33
2019-02-25T13:18:59.487Z,8.53
2019-02-25T13:21:05.568Z,8.70
2019-02-25T13:23:13.211Z,10.03
2019-02-25T13:25:20.006Z,7.53
2019-02-25T13:27:25.226Z,8.30
2019-02-25T13:29:30.426Z,9.40
2019-02-25T13:31:35.774Z,8.37
2019-02-25T13:33:41.570Z,8.23
2019-02-25T13:35:46.842Z,8.63
2019-02-25T13:37:53.828Z,7.63
2019-02-25T13:40:04.433Z,14.50
2019-02-25T13:42:09.641Z,7.73
2019-02-25T13:44:16.722Z,6.43
2019-02-25T13:46:21.987Z,8.07
2019-02-25T13:48:30.616Z,6.20
2019-02-25T13:50:36.442Z,8.50
2019-02-25T13:52:48.031Z,6.47
2019-02-25T13:54:48.794Z,6.40
2019-02-25T13:56:54.371Z,5.27
2019-02-25T13:58:59.630Z,8.40
2019-02-25T14:01:05.540Z,6.80
2019-02-25T14:03:10.817Z,13.17
2019-02-25T14:05:16.189Z,13.33
2019-02-25T14:07:28.392Z,10.47
2019-02-25T14:09:33.911Z,8.10
2019-02-25T14:11:39.139Z,10.80
2019-02-25T14:13:45.166Z,10.40
2019-02-25T14:15:50.974Z,5.80
2019-02-25T14:17:59.288Z,13.73
2019-02-25T14:20:05.970Z,11.90
2019-02-25T14:22:11.286Z,7.47
2019-02-25T14:24:20.612Z,7.03
2019-02-25T14:27:42.911Z,7.17
2019-02-25T14:39:35.370Z,12.97
2019-02-25T14:41:40.287Z,10.67
2019-02-25T14:43:49.053Z,6.47
2019-02-25T14:45:55.729Z,15.03
2019-02-25T14:48:08.289Z,7.10
2019-02-25T14:50:15.914Z,13.43
2019-02-25T14:52:24.278Z,10.23
2019-02-25T14:54:30.028Z,9.50
2019-02-25T14:56:36.302Z,13.58
2019-02-25T14:58:47.672Z,10.50
2019-02-25T15:00:52.965Z,9.95
2019-02-25T15:02:58.474Z,16.82
2019-02-25T15:05:06.382Z,10.60
2019-02-25T15:07:13.487Z,10.05
2019-02-25T15:09:19.061Z,13.80
2019-02-25T15:11:24.573Z,7.22
2019-02-25T15:13:34.900Z,11.28
2019-02-25T15:15:41.718Z,9.90
2019-02-25T15:17:48.131Z,10.00
2019-02-25T15:19:54.385Z,18.30
2019-02-25T15:22:00.895Z,11.40
2019-02-25T15:24:08.160Z,10.28
2019-02-25T15:26:17.378Z,12.65
2019-02-25T15:28:23.151Z,11.60
2019-02-25T15:30:30.712Z,8.13
2019-02-25T15:32:39.507Z,9.75
2019-02-25T15:34:48.155Z,8.78
2019-02-25T15:36:53.590Z,8.85
2019-02-25T15:38:59.121Z,10.10
2019-02-25T15:41:06.702Z,12.58
2019-02-25T15:43:15.052Z,9.60
2019-02-25T15:45:20.145Z,8.00
2019-02-25T15:47:25.666Z,9.70
2019-02-25T15:49:38.169Z,8.75
2019-02-25T15:51:45.271Z,17.17
2019-02-25T15:53:51.892Z,8.35
2019-02-25T15:56:01.500Z,11.35
2019-02-25T15:58:08.695Z,9.70
2019-02-25T16:00:16.266Z,7.95
2019-02-25T16:02:22.243Z,9.43
2019-02-25T16:04:31.626Z,8.60
2019-02-25T16:06:37.291Z,12.15
2019-02-25T16:08:42.872Z,8.10
2019-02-25T16:10:49.450Z,7.78
2019-02-25T16:13:05.996Z,11.48
2019-02-25T16:15:26.787Z,6.03
2019-02-25T16:17:32.675Z,12.43
2019-02-25T16:19:48.358Z,8.28
2019-02-25T16:21:54.699Z,7.97
2019-02-25T16:24:02.047Z,9.58
2019-02-25T16:26:17.800Z,14.30
2019-02-25T16:28:23.011Z,10.25
2019-02-25T16:30:30.619Z,8.80
2019-02-25T16:32:44.568Z,10.70
2019-02-25T16:34:52.010Z,7.08
2019-02-25T16:37:04.864Z,8.78
2019-02-25T16:39:10.615Z,6.95
2019-02-25T16:41:16.693Z,8.13
2019-02-25T16:43:28.557Z,11.60
2019-02-25T16:45:35.468Z,15.28
2019-02-25T16:47:41.359Z,7.87
2019-02-25T16:49:50.375Z,12.50
2019-02-25T16:51:57.703Z,15.13
2019-02-25T16:54:04.395Z,13.72
2019-02-25T16:56:17.602Z,8.73
2019-02-25T16:58:36.727Z,12.90
2019-02-25T17:00:42.775Z,15.83
2019-02-25T17:02:49.437Z,14.73
2019-02-25T17:05:01.662Z,15.15
2019-02-25T17:07:07.901Z,16.95
2019-02-25T17:09:26.070Z,19.40
2019-02-25T17:11:37.997Z,19.12
2019-02-25T17:13:44.412Z,15.93
2019-02-25T17:15:52.723Z,16.62
2019-02-25T17:18:00.358Z,13.08
2019-02-25T17:20:10.188Z,19.70
2019-02-25T17:22:14.143Z,10.80
2019-02-25T17:24:23.717Z,10.88
2019-02-25T17:26:28.204Z,15.75
2019-02-25T17:28:33.711Z,13.70
2019-02-25T17:30:41.160Z,17.20
2019-02-25T17:32:49.214Z,19.23
2019-02-25T17:34:58.210Z,17.05
2019-02-25T17:37:06.343Z,20.23
2019-02-25T17:39:14.592Z,18.73
2019-02-25T17:41:20.075Z,15.55
2019-02-25T17:43:25.614Z,15.08
2019-02-25T17:45:32.449Z,18.85
2019-02-25T17:47:39.688Z,21.75
2019-02-25T17:49:51.686Z,18.48
2019-02-25T17:52:02.682Z,18.20
2019-02-25T17:54:10.129Z,19.40
2019-02-25T17:56:15.563Z,22.40
2019-02-25T17:58:27.202Z,14.13
2019-02-25T18:00:43.890Z,13.62
2019-02-25T18:02:54.589Z,15.18
2019-02-25T18:05:04.221Z,13.13
2019-02-25T18:07:09.853Z,20.80
2019-02-25T18:09:16.040Z,24.75
2019-02-25T18:11:24.483Z,27.62
2019-02-25T18:13:30.627Z,25.70
2019-02-25T18:15:38.625Z,22.52
2019-02-25T18:17:47.100Z,27.52
2019-02-25T18:19:54.541Z,24.07
2019-02-25T18:22:03.996Z,14.68
2019-02-25T18:24:10.072Z,18.00
2019-02-25T18:26:16.633Z,20.68
2019-02-25T18:28:22.603Z,17.77
2019-02-25T18:30:30.198Z,22.85
2019-02-25T18:32:37.093Z,19.20
2019-02-25T18:34:43.312Z,23.50
2019-02-25T18:36:49.368Z,23.42
2019-02-25T18:38:55.987Z,21.77
2019-02-25T18:41:09.147Z,18.10
2019-02-25T18:43:28.205Z,12.60
2019-02-25T18:45:35.410Z,26.37
2019-02-25T18:47:40.822Z,36.08
2019-02-25T18:49:46.499Z,29.05
2019-02-25T18:51:52.154Z,24.70
2019-02-25T18:53:59.722Z,23.65
2019-02-25T18:56:05.514Z,19.25
2019-02-25T18:58:24.104Z,22.35
2019-02-25T19:00:33.806Z,20.30
2019-02-25T19:02:40.261Z,19.70
2019-02-25T19:04:46.678Z,20.50
2019-02-25T19:06:53.696Z,18.32
2019-02-25T19:09:06.030Z,24.52
2019-02-25T19:11:13.213Z,15.93
2019-02-25T19:13:20.968Z,15.98
2019-02-25T19:15:34.963Z,15.58
2019-02-25T19:17:50.130Z,13.80
2019-02-25T19:20:02.659Z,17.55
2019-02-25T19:22:10.354Z,17.20
2019-02-25T19:24:16.608Z,17.52
2019-02-25T19:26:23.073Z,15.75
2019-02-25T19:28:30.241Z,21.25
2019-02-25T19:30:36.022Z,15.60
2019-02-25T19:32:41.522Z,11.93
2019-02-25T19:34:47.121Z,11.45
2019-02-25T19:36:53.233Z,11.18
2019-02-25T19:39:04.955Z,17.20
2019-02-25T19:41:11.035Z,9.95
2019-02-25T19:43:20.893Z,10.40
2019-02-25T19:45:31.254Z,13.98
2019-02-25T19:47:37.775Z,13.38
2019-02-25T19:49:45.713Z,14.35
2019-02-25T19:51:53.617Z,14.60
2019-02-25T19:54:05.183Z,13.40
2019-02-25T19:56:10.234Z,13.38
2019-02-25T19:58:17.298Z,21.52
2019-02-25T20:00:25.740Z,17.23
2019-02-25T20:02:32.889Z,10.65
2019-02-25T20:04:40.049Z,10.63
2019-02-25T20:06:47.136Z,9.00
2019-02-25T20:08:55.891Z,11.28
2019-02-25T20:11:00.730Z,9.08
2019-02-25T20:13:08.639Z,9.28
2019-02-25T20:15:16.391Z,12.95
2019-02-25T20:17:26.019Z,10.58
2019-02-25T20:19:30.121Z,13.80
2019-02-25T20:21:35.780Z,11.33
2019-02-25T20:23:41.265Z,11.60
2019-02-25T20:25:48.842Z,12.35
2019-02-25T20:27:55.124Z,13.20
2019-02-25T20:30:03.171Z,11.65
2019-02-25T20:32:18.538Z,11.05
2019-02-25T20:34:27.626Z,9.98
2019-02-25T20:36:34.745Z,15.40
2019-02-25T20:38:40.209Z,13.90
2019-02-25T20:40:49.017Z,7.90
2019-02-25T20:42:54.155Z,8.70
2019-02-25T20:45:11.472Z,7.50
2019-02-25T20:47:17.090Z,6.58
2019-02-25T20:49:23.277Z,6.05
2019-02-25T20:51:31.508Z,10.25
2019-02-25T20:53:37.792Z,13.10
2019-02-25T20:55:43.550Z,11.20
2019-02-25T20:57:54.316Z,7.75
2019-02-25T21:00:00.239Z,4.97
2019-02-25T21:02:09.702Z,8.40
2019-02-25T21:04:13.604Z,7.35
2019-02-25T21:06:21.248Z,8.65
2019-02-25T21:08:26.917Z,7.17
2019-02-25T21:10:35.664Z,5.95
2019-02-25T21:12:43.126Z,12.53
2019-02-25T21:14:48.501Z,6.55
2019-02-25T21:16:55.899Z,4.33
2019-02-25T21:19:01.296Z,7.80
2019-02-25T21:21:07.725Z,7.25
2019-02-25T21:23:13.960Z,7.35
2019-02-25T21:25:22.052Z,7.78
2019-02-25T21:27:30.232Z,9.20
2019-02-25T21:29:36.502Z,8.00
2019-02-25T21:31:43.123Z,9.50
2019-02-25T21:33:50.085Z,6.12
2019-02-25T21:35:55.849Z,8.38
2019-02-25T21:38:02.558Z,14.25
2019-02-25T21:40:10.421Z,13.32
2019-02-25T21:42:17.684Z,10.60
2019-02-25T21:44:24.190Z,8.45
2019-02-25T21:46:31.689Z,8.70
2019-02-25T21:48:55.031Z,8.98
2019-02-25T21:51:04.574Z,6.85
2019-02-25T21:53:09.474Z,6.37
2019-02-25T21:55:16.409Z,7.30
2019-02-25T21:57:46.625Z,5.83
2019-02-25T21:59:54.173Z,5.58
2019-02-25T22:02:01.579Z,4.05
2019-02-25T22:04:11.216Z,4.58
2019-02-25T22:06:19.986Z,3.15
2019-02-25T22:08:24.438Z,3.50
2019-02-25T22:10:34.093Z,5.15
2019-02-25T22:12:42.137Z,5.45
2019-02-25T22:14:49.747Z,2.52
2019-02-25T22:16:56.620Z,4.28
2019-02-25T22:19:02.821Z,2.65
2019-02-25T22:21:09.454Z,4.12
2019-02-25T22:23:16.578Z,3.75
2019-02-25T22:25:22.046Z,3.17
2019-02-25T22:27:27.537Z,2.10
2019-02-25T22:29:36.066Z,2.65
2019-02-25T22:31:45.267Z,1.60
2019-02-25T22:33:51.354Z,2.55
2019-02-25T22:35:56.937Z,1.57
2019-02-25T22:38:04.458Z,2.05
2019-02-25T22:40:15.077Z,3.45
2019-02-25T22:42:20.154Z,4.75
2019-02-25T22:44:26.956Z,2.37
2019-02-25T22:46:36.919Z,1.72
2019-02-25T22:48:43.298Z,3.35
2019-02-25T22:50:57.666Z,4.67
2019-02-25T22:53:04.240Z,1.95
2019-02-25T22:55:12.899Z,2.50
2019-02-25T22:57:20.945Z,1.27
2019-02-25T22:59:35.023Z,1.80
2019-02-25T23:01:42.582Z,2.70
2019-02-25T23:03:52.171Z,1.77
2019-02-25T23:06:03.070Z,2.25
2019-02-25T23:08:12.805Z,1.85
2019-02-25T23:10:23.697Z,3.10
2019-02-25T23:12:31.171Z,1.55
2019-02-25T23:14:38.269Z,3.10
2019-02-25T23:16:47.935Z,2.40
2019-02-25T23:18:54.480Z,1.47
2019-02-25T23:21:02.714Z,2.58
2019-02-25T23:23:15.980Z,4.65
2019-02-25T23:25:22.594Z,5.17
2019-02-25T23:27:36.503Z,9.28
2019-02-25T23:29:47.756Z,9.75
2019-02-25T23:31:52.804Z,13.58
2019-02-25T23:33:58.327Z,10.35
2019-02-25T23:36:04.189Z,5.65
2019-02-25T23:38:09.799Z,10.65
2019-02-25T23:40:16.786Z,10.48
2019-02-25T23:42:22.656Z,9.08
2019-02-25T23:44:28.715Z,16.77
2019-02-25T23:46:37.212Z,9.05
2019-02-25T23:48:44.084Z,5.33
2019-02-25T23:50:53.154Z,7.20
2019-02-25T23:52:59.766Z,7.17
2019-02-25T23:55:06.694Z,4.95
2019-02-25T23:57:14.706Z,8.43
2019-02-25T23:59:23.851Z,7.87
